Aeneas, Washington
Current Conditions -  °F | °C
As of 2:53 PM on Saturday 25 Oct 2014 (Local Time) from KOMK Reporting Station
Broken Clouds Broken Clouds  
Wind Chill: 52°   Ceiling: 8500
Heat Index: 52°   Visibility: 10mi
Dew Point: 45°   Wind: 5mph
Humidity: 77%   Direction: 110°ESE
Pressure: 29.52"   Gusts: NA
Location:  48.6708°N, 119.278°W
Report Text: KOMK 252153Z AUTO 11004KT 10SM BKN085 11/07 A2952 RMK AO2 PRESFR SLP999 T01110072
Loading
Personal Weather Stations






























Interactive Weather Map New forecast layout! Learn more

10-Day Weather Forecast

Advertisements
Track Severe Weather on mobile